createdAt,value
2022-08-01T00:00:13.976Z,491.00
2022-08-01T00:00:43.973Z,490.00
2022-08-01T00:01:14.086Z,491.00
2022-08-01T00:01:44.080Z,490.00
2022-08-01T00:02:14.234Z,490.00
2022-08-01T00:02:44.373Z,490.00
2022-08-01T00:03:14.337Z,491.00
2022-08-01T00:03:44.334Z,491.00
2022-08-01T00:04:14.330Z,491.00
2022-08-01T00:04:44.322Z,490.00
2022-08-01T00:05:14.441Z,491.00
2022-08-01T00:05:44.433Z,492.00
2022-08-01T00:06:14.439Z,493.00
2022-08-01T00:06:44.548Z,493.00
2022-08-01T00:07:14.552Z,495.00
2022-08-01T00:07:44.542Z,496.00
2022-08-01T00:08:14.663Z,494.00
2022-08-01T00:08:44.654Z,494.00
2022-08-01T00:09:23.802Z,494.00
2022-08-01T00:09:44.792Z,492.00
2022-08-01T00:10:14.789Z,491.00
2022-08-01T00:10:44.908Z,490.00
2022-08-01T00:11:15.031Z,490.00
2022-08-01T00:11:45.024Z,489.00
2022-08-01T00:12:15.152Z,487.00
2022-08-01T00:12:45.156Z,487.00
2022-08-01T00:13:15.149Z,486.00
2022-08-01T00:13:45.262Z,486.00
2022-08-01T00:14:15.267Z,486.00
2022-08-01T00:14:45.383Z,484.00
2022-08-01T00:15:15.507Z,485.00
2022-08-01T00:15:53.709Z,485.00
2022-08-01T00:16:15.519Z,485.00
2022-08-01T00:16:45.512Z,484.00
2022-08-01T00:17:15.512Z,484.00
2022-08-01T00:17:45.632Z,483.00
2022-08-01T00:18:15.629Z,482.00
2022-08-01T00:18:45.747Z,482.00
2022-08-01T00:19:15.748Z,482.00
2022-08-01T00:19:45.860Z,482.00
2022-08-01T00:20:15.982Z,481.00
2022-08-01T00:20:46.097Z,481.00
2022-08-01T00:21:16.098Z,481.00
2022-08-01T00:21:51.885Z,480.00
2022-08-01T00:22:16.114Z,482.00
2022-08-01T00:22:46.115Z,482.00
2022-08-01T00:23:16.233Z,484.00
2022-08-01T00:23:46.228Z,484.00
2022-08-01T00:24:16.226Z,484.00
2022-08-01T00:24:46.303Z,483.00
2022-08-01T00:25:16.423Z,484.00
2022-08-01T00:25:46.543Z,484.00
2022-08-01T00:26:16.660Z,484.00
2022-08-01T00:26:46.774Z,484.00
2022-08-01T00:27:16.774Z,485.00
2022-08-01T00:27:46.777Z,487.00
2022-08-01T00:28:16.872Z,488.00
2022-08-01T00:28:46.880Z,488.00
2022-08-01T00:30:04.736Z,489.00
2022-08-01T00:30:09.829Z,491.00
2022-08-01T00:30:17.038Z,491.00
2022-08-01T00:30:47.153Z,490.00
2022-08-01T00:31:17.146Z,490.00
2022-08-01T00:31:47.231Z,489.00
2022-08-01T00:32:17.322Z,487.00
2022-08-01T00:32:47.408Z,486.00
2022-08-01T00:33:17.491Z,487.00
2022-08-01T00:33:47.575Z,487.00
2022-08-01T00:34:17.660Z,488.00
2022-08-01T00:34:47.740Z,489.00
2022-08-01T00:35:17.783Z,489.00
2022-08-01T00:35:47.860Z,488.00
2022-08-01T00:36:17.945Z,489.00
2022-08-01T00:36:48.028Z,488.00
2022-08-01T00:37:18.118Z,487.00
2022-08-01T00:37:48.201Z,486.00
2022-08-01T00:38:18.286Z,487.00
2022-08-01T00:38:48.379Z,487.00
2022-08-01T00:39:18.460Z,486.00
2022-08-01T00:39:48.542Z,485.00
2022-08-01T00:40:18.641Z,485.00
2022-08-01T00:40:48.704Z,485.00
2022-08-01T00:41:18.801Z,486.00
2022-08-01T00:41:48.796Z,487.00
2022-08-01T00:42:18.816Z,486.00
2022-08-01T00:42:48.816Z,485.00
2022-08-01T00:43:18.812Z,484.00
2022-08-01T00:43:48.926Z,483.00
2022-08-01T00:44:18.922Z,483.00
2022-08-01T00:44:48.921Z,481.00
2022-08-01T00:45:19.039Z,481.00
2022-08-01T00:45:49.158Z,482.00
2022-08-01T00:46:19.154Z,481.00
2022-08-01T00:46:49.270Z,481.00
2022-08-01T00:47:19.281Z,483.00
2022-08-01T00:47:49.273Z,484.00
2022-08-01T00:48:19.293Z,482.00
2022-08-01T00:48:49.449Z,481.00
2022-08-01T00:49:19.525Z,481.00
2022-08-01T00:49:49.503Z,482.00
2022-08-01T00:50:19.617Z,482.00
2022-08-01T00:50:49.738Z,482.00
2022-08-01T00:51:19.731Z,481.00
2022-08-01T00:51:49.853Z,482.00
2022-08-01T00:52:19.858Z,482.00
2022-08-01T00:52:51.405Z,482.00
2022-08-01T00:53:19.887Z,483.00
2022-08-01T00:53:51.832Z,482.00
2022-08-01T00:54:20.064Z,484.00
2022-08-01T00:54:50.182Z,484.00
2022-08-01T00:55:20.298Z,482.00
2022-08-01T00:55:50.297Z,481.00
2022-08-01T00:56:20.418Z,481.00
2022-08-01T00:56:50.537Z,481.00
2022-08-01T00:58:02.426Z,479.00
2022-08-01T00:58:03.038Z,479.00
2022-08-01T00:58:20.705Z,479.00
2022-08-01T00:58:50.790Z,479.00
2022-08-01T00:59:20.786Z,479.00
2022-08-01T00:59:50.834Z,478.00
2022-08-01T01:00:27.188Z,479.00
2022-08-01T01:00:52.396Z,480.00
2022-08-01T01:01:20.919Z,479.00
2022-08-01T01:01:50.931Z,479.00
2022-08-01T01:02:20.969Z,478.00
2022-08-01T01:02:50.966Z,479.00
2022-08-01T01:03:23.805Z,480.00
2022-08-01T01:03:59.789Z,480.00
2022-08-01T01:04:21.016Z,481.00
2022-08-01T01:04:51.015Z,481.00
2022-08-01T01:05:21.015Z,482.00
2022-08-01T01:05:51.018Z,483.00
2022-08-01T01:06:21.019Z,483.00
2022-08-01T01:06:51.141Z,484.00
2022-08-01T01:07:21.265Z,485.00
2022-08-01T01:07:51.267Z,485.00
2022-08-01T01:08:21.381Z,485.00
2022-08-01T01:08:51.499Z,484.00
2022-08-01T01:09:21.496Z,487.00
2022-08-01T01:09:51.616Z,487.00
2022-08-01T01:10:21.729Z,488.00
2022-08-01T01:10:51.850Z,488.00
2022-08-01T01:11:21.845Z,486.00
2022-08-01T01:11:51.963Z,486.00
2022-08-01T01:12:21.965Z,485.00
2022-08-01T01:12:51.960Z,484.00
2022-08-01T01:13:22.077Z,480.00
2022-08-01T01:13:52.074Z,481.00
2022-08-01T01:14:22.069Z,480.00
2022-08-01T01:14:52.192Z,481.00
2022-08-01T01:15:22.186Z,481.00
2022-08-01T01:15:52.185Z,481.00
2022-08-01T01:16:22.180Z,481.00
2022-08-01T01:16:52.179Z,481.00
2022-08-01T01:17:49.896Z,482.00
2022-08-01T01:17:52.197Z,483.00
2022-08-01T01:18:22.193Z,483.00
2022-08-01T01:18:52.313Z,481.00
2022-08-01T01:19:22.308Z,481.00
2022-08-01T01:19:52.431Z,480.00
2022-08-01T01:20:22.423Z,481.00
2022-08-01T01:20:52.428Z,479.00
2022-08-01T01:21:24.832Z,479.00
2022-08-01T01:21:52.574Z,478.00
2022-08-01T01:22:22.573Z,479.00
2022-08-01T01:22:52.568Z,481.00
2022-08-01T01:23:22.576Z,483.00
2022-08-01T01:23:52.566Z,483.00
2022-08-01T01:24:22.683Z,482.00
2022-08-01T01:24:52.803Z,483.00
2022-08-01T01:25:22.796Z,484.00
2022-08-01T01:25:52.918Z,483.00
2022-08-01T01:26:23.035Z,481.00
2022-08-01T01:26:53.031Z,481.00
2022-08-01T01:27:23.024Z,480.00
2022-08-01T01:27:53.147Z,479.00
2022-08-01T01:28:23.141Z,480.00
2022-08-01T01:28:53.141Z,480.00
2022-08-01T01:29:23.133Z,478.00
2022-08-01T01:29:58.701Z,478.00
2022-08-01T01:30:23.148Z,478.00
2022-08-01T01:30:53.140Z,479.00
2022-08-01T01:31:23.251Z,480.00
2022-08-01T01:31:53.342Z,480.00
2022-08-01T01:32:28.579Z,480.00
2022-08-01T01:32:53.541Z,481.00
2022-08-01T01:33:23.626Z,481.00
2022-08-01T01:33:53.709Z,481.00
2022-08-01T01:34:23.783Z,481.00
2022-08-01T01:34:53.814Z,481.00
2022-08-01T01:35:23.900Z,484.00
2022-08-01T01:35:53.981Z,485.00
2022-08-01T01:36:24.066Z,483.00
2022-08-01T01:36:54.149Z,485.00
2022-08-01T01:37:24.228Z,487.00
2022-08-01T01:37:54.310Z,488.00
2022-08-01T01:38:24.394Z,487.00
2022-08-01T01:38:54.479Z,488.00
2022-08-01T01:39:24.561Z,486.00
2022-08-01T01:39:54.647Z,487.00
2022-08-01T01:40:24.730Z,488.00
2022-08-01T01:40:54.813Z,488.00
2022-08-01T01:41:24.903Z,487.00
2022-08-01T01:41:54.904Z,486.00
2022-08-01T01:42:24.905Z,487.00
2022-08-01T01:42:54.913Z,486.00
2022-08-01T01:43:28.882Z,486.00
2022-08-01T01:43:55.025Z,487.00
2022-08-01T01:44:25.142Z,486.00
2022-08-01T01:44:55.138Z,487.00
2022-08-01T01:45:25.144Z,486.00
2022-08-01T01:45:55.137Z,488.00
2022-08-01T01:46:25.256Z,488.00
2022-08-01T01:46:55.249Z,489.00
2022-08-01T01:47:25.241Z,490.00
2022-08-01T01:47:55.612Z,490.00
2022-08-01T01:48:25.467Z,489.00
2022-08-01T01:48:55.503Z,490.00
2022-08-01T01:49:25.540Z,489.00
2022-08-01T01:49:55.508Z,487.00
2022-08-01T01:50:25.504Z,488.00
2022-08-01T01:50:55.501Z,488.00
2022-08-01T01:51:25.493Z,488.00
2022-08-01T01:52:03.628Z,485.00
2022-08-01T01:52:25.651Z,484.00
2022-08-01T01:52:55.873Z,482.00
2022-08-01T01:53:25.746Z,482.00
2022-08-01T01:53:55.747Z,482.00
2022-08-01T01:54:25.862Z,482.00
2022-08-01T01:54:55.984Z,481.00
2022-08-01T01:55:25.984Z,482.00
2022-08-01T01:55:56.103Z,482.00
2022-08-01T01:56:26.219Z,481.00
2022-08-01T01:56:56.228Z,481.00
2022-08-01T01:57:26.218Z,481.00
2022-08-01T01:57:56.338Z,480.00
2022-08-01T01:58:26.329Z,480.00
2022-08-01T01:58:56.329Z,481.00
2022-08-01T01:59:26.447Z,480.00
2022-08-01T01:59:56.571Z,481.00
2022-08-01T02:00:26.683Z,480.00
2022-08-01T02:00:56.682Z,480.00
2022-08-01T02:01:58.734Z,482.00
2022-08-01T02:02:08.827Z,481.00
2022-08-01T02:02:26.784Z,479.00
2022-08-01T02:02:56.847Z,477.00
2022-08-01T02:03:26.843Z,476.00
2022-08-01T02:03:56.837Z,476.00
2022-08-01T02:04:26.953Z,476.00
2022-08-01T02:04:56.950Z,476.00
2022-08-01T02:05:26.945Z,476.00
2022-08-01T02:05:57.065Z,476.00
2022-08-01T02:06:27.180Z,475.00
2022-08-01T02:06:57.178Z,475.00
2022-08-01T02:07:27.187Z,475.00
2022-08-01T02:07:59.525Z,476.00
2022-08-01T02:08:27.282Z,476.00
2022-08-01T02:08:57.363Z,477.00
2022-08-01T02:09:27.355Z,479.00
2022-08-01T02:09:57.475Z,478.00
2022-08-01T02:10:28.643Z,478.00
2022-08-01T02:10:57.590Z,477.00
2022-08-01T02:11:27.710Z,475.00
2022-08-01T02:12:13.959Z,475.00
2022-08-01T02:12:27.731Z,474.00
2022-08-01T02:12:57.726Z,471.00
2022-08-01T02:13:27.716Z,473.00
2022-08-01T02:13:57.714Z,474.00
2022-08-01T02:14:27.835Z,474.00
2022-08-01T02:14:57.951Z,473.00
2022-08-01T02:15:27.946Z,473.00
2022-08-01T02:15:58.066Z,473.00
2022-08-01T02:16:28.114Z,472.00
2022-08-01T02:16:58.117Z,472.00
2022-08-01T02:17:28.116Z,472.00
2022-08-01T02:17:58.247Z,474.00
2022-08-01T02:18:28.228Z,474.00
2022-08-01T02:18:58.349Z,475.00
2022-08-01T02:19:28.470Z,476.00
2022-08-01T02:19:58.586Z,476.00
2022-08-01T02:20:28.582Z,475.00
2022-08-01T02:20:58.705Z,473.00
2022-08-01T02:21:28.812Z,475.00
2022-08-01T02:21:58.809Z,473.00
2022-08-01T02:22:28.805Z,474.00
2022-08-01T02:22:58.921Z,475.00
2022-08-01T02:23:28.917Z,476.00
2022-08-01T02:24:01.650Z,475.00
2022-08-01T02:24:30.337Z,477.00
2022-08-01T02:24:59.051Z,477.00
2022-08-01T02:25:29.041Z,477.00
2022-08-01T02:26:11.368Z,477.00
2022-08-01T02:26:29.181Z,478.00
2022-08-01T02:26:59.176Z,480.00
2022-08-01T02:27:29.180Z,480.00
2022-08-01T02:27:59.175Z,480.00
2022-08-01T02:28:29.210Z,480.00
2022-08-01T02:28:59.292Z,480.00
2022-08-01T02:29:29.408Z,479.00
2022-08-01T02:29:59.403Z,480.00
2022-08-01T02:30:29.397Z,480.00
2022-08-01T02:30:59.516Z,479.00
2022-08-01T02:31:29.614Z,480.00
2022-08-01T02:32:38.594Z,474.00
2022-08-01T02:33:09.873Z,482.00
2022-08-01T02:33:38.785Z,482.00
2022-08-01T02:34:08.873Z,481.00
2022-08-01T02:34:38.948Z,482.00
2022-08-01T02:35:09.029Z,481.00
2022-08-01T02:36:31.400Z,479.00
2022-08-01T02:36:32.166Z,479.00
2022-08-01T02:36:39.332Z,478.00
2022-08-01T02:37:09.415Z,478.00
2022-08-01T02:37:44.324Z,478.00
2022-08-01T02:38:09.630Z,479.00
2022-08-01T02:38:39.699Z,480.00
2022-08-01T02:39:09.775Z,481.00
2022-08-01T02:39:39.860Z,482.00
2022-08-01T02:40:09.989Z,480.00
2022-08-01T02:40:40.043Z,478.00
2022-08-01T02:41:10.132Z,477.00
2022-08-01T02:41:40.210Z,476.00
2022-08-01T02:42:10.290Z,476.00
2022-08-01T02:42:40.411Z,475.00
2022-08-01T02:43:10.411Z,475.00
2022-08-01T02:43:40.530Z,476.00
2022-08-01T02:44:10.648Z,476.00
2022-08-01T02:44:40.643Z,477.00
2022-08-01T02:45:10.759Z,480.00
2022-08-01T02:45:40.753Z,482.00
2022-08-01T02:46:10.878Z,484.00
2022-08-01T02:46:40.969Z,483.00
2022-08-01T02:47:11.088Z,484.00
2022-08-01T02:47:41.209Z,482.00
2022-08-01T02:48:11.323Z,482.00
2022-08-01T02:48:41.436Z,480.00
2022-08-01T02:49:11.524Z,479.00
2022-08-01T02:49:41.523Z,480.00
2022-08-01T02:50:11.523Z,479.00
2022-08-01T02:50:41.519Z,479.00
2022-08-01T02:51:11.638Z,480.00
2022-08-01T02:51:41.755Z,480.00
2022-08-01T02:52:11.744Z,480.00
2022-08-01T02:52:41.874Z,479.00
2022-08-01T02:53:11.862Z,479.00
2022-08-01T02:53:44.484Z,480.00
2022-08-01T02:54:11.864Z,480.00
2022-08-01T02:54:41.984Z,480.00
2022-08-01T02:55:11.978Z,477.00
2022-08-01T02:55:42.101Z,477.00
2022-08-01T02:56:12.094Z,477.00
2022-08-01T02:56:42.099Z,477.00
2022-08-01T02:57:14.056Z,477.00
2022-08-01T02:57:52.197Z,477.00
2022-08-01T02:58:12.251Z,477.00
2022-08-01T02:58:42.337Z,477.00
2022-08-01T02:59:12.341Z,477.00
2022-08-01T02:59:42.374Z,478.00
2022-08-01T03:00:12.479Z,479.00
2022-08-01T03:00:42.515Z,479.00
2022-08-01T03:01:12.578Z,480.00
2022-08-01T03:01:42.715Z,480.00
2022-08-01T03:02:12.647Z,481.00
2022-08-01T03:02:42.739Z,482.00
2022-08-01T03:03:12.739Z,481.00
2022-08-01T03:03:42.730Z,481.00
2022-08-01T03:04:12.731Z,477.00
2022-08-01T03:04:42.842Z,476.00
2022-08-01T03:05:12.837Z,476.00
2022-08-01T03:05:42.956Z,476.00
2022-08-01T03:06:13.073Z,479.00
2022-08-01T03:06:45.059Z,479.00
2022-08-01T03:07:13.173Z,480.00
2022-08-01T03:07:43.291Z,481.00
2022-08-01T03:08:14.931Z,483.00
2022-08-01T03:08:43.390Z,482.00
2022-08-01T03:09:13.505Z,482.00
2022-08-01T03:09:43.586Z,483.00
2022-08-01T03:10:13.586Z,482.00
2022-08-01T03:10:43.706Z,483.00
2022-08-01T03:11:13.698Z,483.00
2022-08-01T03:11:43.820Z,482.00
2022-08-01T03:12:13.936Z,482.00
2022-08-01T03:12:44.079Z,482.00
2022-08-01T03:13:14.155Z,479.00
2022-08-01T03:13:44.273Z,481.00
2022-08-01T03:14:14.272Z,483.00
2022-08-01T03:14:44.390Z,484.00
2022-08-01T03:15:14.503Z,482.00
2022-08-01T03:15:44.506Z,483.00
2022-08-01T03:16:14.501Z,482.00
2022-08-01T03:16:44.621Z,481.00
2022-08-01T03:17:14.614Z,478.00
2022-08-01T03:17:44.779Z,477.00
2022-08-01T03:18:14.767Z,478.00
2022-08-01T03:18:44.889Z,478.00
2022-08-01T03:19:14.885Z,477.00
2022-08-01T03:19:44.893Z,478.00
2022-08-01T03:20:14.885Z,480.00
2022-08-01T03:20:45.013Z,480.00
2022-08-01T03:21:15.001Z,479.00
2022-08-01T03:21:45.119Z,478.00
2022-08-01T03:22:15.116Z,477.00
2022-08-01T03:22:45.331Z,477.00
2022-08-01T03:23:15.331Z,478.00
2022-08-01T03:23:45.325Z,479.00
2022-08-01T03:24:15.443Z,479.00
2022-08-01T03:24:45.434Z,478.00
2022-08-01T03:25:15.431Z,479.00
2022-08-01T03:25:45.548Z,477.00
2022-08-01T03:26:15.547Z,477.00
2022-08-01T03:26:45.663Z,477.00
2022-08-01T03:27:15.777Z,477.00
2022-08-01T03:27:45.813Z,476.00
2022-08-01T03:28:15.810Z,476.00
2022-08-01T03:28:45.924Z,476.00
2022-08-01T03:29:15.916Z,477.00
2022-08-01T03:29:45.916Z,479.00
2022-08-01T03:30:16.031Z,478.00
2022-08-01T03:30:46.151Z,477.00
2022-08-01T03:31:16.267Z,479.00
2022-08-01T03:31:46.404Z,481.00
2022-08-01T03:32:16.487Z,482.00
2022-08-01T03:32:46.584Z,482.00
2022-08-01T03:33:16.667Z,482.00
2022-08-01T03:33:46.759Z,481.00
2022-08-01T03:34:16.844Z,479.00
2022-08-01T03:34:46.843Z,479.00
2022-08-01T03:35:16.925Z,479.00
2022-08-01T03:35:47.015Z,479.00
2022-08-01T03:36:17.094Z,480.00
2022-08-01T03:36:47.177Z,479.00
2022-08-01T03:37:17.260Z,480.00
2022-08-01T03:38:14.277Z,480.00
2022-08-01T03:38:17.339Z,480.00
2022-08-01T03:38:47.423Z,480.00
2022-08-01T03:39:17.504Z,480.00
2022-08-01T03:39:47.579Z,478.00
2022-08-01T03:40:17.664Z,476.00
2022-08-01T03:40:47.741Z,477.00
2022-08-01T03:41:17.809Z,476.00
2022-08-01T03:41:47.891Z,479.00
2022-08-01T03:42:17.989Z,480.00
2022-08-01T03:42:48.125Z,481.00
2022-08-01T03:43:18.121Z,482.00
2022-08-01T03:43:48.240Z,480.00
2022-08-01T03:44:18.355Z,480.00
2022-08-01T03:44:48.353Z,481.00
2022-08-01T03:45:18.357Z,482.00
2022-08-01T03:45:48.468Z,483.00
2022-08-01T03:46:18.600Z,484.00
2022-08-01T03:46:48.588Z,483.00
2022-08-01T03:47:18.706Z,483.00
2022-08-01T03:47:48.859Z,482.00
2022-08-01T03:48:18.903Z,483.00
2022-08-01T03:48:49.067Z,482.00
2022-08-01T03:49:19.148Z,483.00
2022-08-01T03:49:49.152Z,483.00
2022-08-01T03:50:19.262Z,482.00
2022-08-01T03:50:49.264Z,482.00
2022-08-01T03:51:19.382Z,481.00
2022-08-01T03:51:49.377Z,480.00
2022-08-01T03:52:19.495Z,478.00
2022-08-01T03:52:49.641Z,479.00
2022-08-01T03:53:19.632Z,479.00
2022-08-01T03:53:49.751Z,480.00
2022-08-01T03:54:19.752Z,478.00
2022-08-01T03:54:49.873Z,479.00
2022-08-01T03:55:19.875Z,479.00
2022-08-01T03:55:49.874Z,477.00
2022-08-01T03:56:19.868Z,477.00
2022-08-01T03:56:49.869Z,478.00
2022-08-01T03:57:35.119Z,476.00
2022-08-01T03:57:50.032Z,478.00
2022-08-01T03:58:20.024Z,478.00
2022-08-01T03:58:50.570Z,478.00
2022-08-01T03:59:20.042Z,479.00
2022-08-01T03:59:50.038Z,478.00
2022-08-01T04:00:20.028Z,480.00
2022-08-01T04:00:50.163Z,480.00
2022-08-01T04:01:20.331Z,480.00
2022-08-01T04:01:50.435Z,479.00
2022-08-01T04:02:22.870Z,478.00
2022-08-01T04:02:50.391Z,478.00
2022-08-01T04:03:20.387Z,478.00
2022-08-01T04:03:50.391Z,476.00
2022-08-01T04:04:20.381Z,475.00
2022-08-01T04:04:50.503Z,475.00
2022-08-01T04:05:20.499Z,475.00
2022-08-01T04:05:50.617Z,476.00
2022-08-01T04:06:20.736Z,476.00
2022-08-01T04:06:50.852Z,478.00
2022-08-01T04:07:20.992Z,476.00
2022-08-01T04:07:51.107Z,478.00
2022-08-01T04:08:21.100Z,479.00
2022-08-01T04:08:51.221Z,477.00
2022-08-01T04:09:21.336Z,476.00
2022-08-01T04:09:51.459Z,476.00
2022-08-01T04:10:21.453Z,476.00
2022-08-01T04:10:51.572Z,478.00
2022-08-01T04:11:21.661Z,477.00
2022-08-01T04:11:51.660Z,479.00
2022-08-01T04:12:21.653Z,478.00
2022-08-01T04:12:51.777Z,478.00
2022-08-01T04:13:21.773Z,479.00
2022-08-01T04:13:51.771Z,480.00
2022-08-01T04:14:21.766Z,480.00
2022-08-01T04:14:51.763Z,480.00
2022-08-01T04:15:21.756Z,480.00
2022-08-01T04:15:51.873Z,480.00
2022-08-01T04:16:21.992Z,481.00
2022-08-01T04:16:51.992Z,480.00
2022-08-01T04:17:21.984Z,478.00
2022-08-01T04:17:52.103Z,477.00
2022-08-01T04:18:22.099Z,476.00
2022-08-01T04:18:52.096Z,476.00
2022-08-01T04:19:22.085Z,474.00
2022-08-01T04:19:52.087Z,474.00
2022-08-01T04:20:22.081Z,475.00
2022-08-01T04:20:52.197Z,474.00
2022-08-01T04:21:22.193Z,475.00
2022-08-01T04:21:52.200Z,475.00
2022-08-01T04:22:22.317Z,476.00
2022-08-01T04:22:52.314Z,475.00
2022-08-01T04:23:22.307Z,477.00
2022-08-01T04:23:53.537Z,477.00
2022-08-01T04:24:22.451Z,479.00
2022-08-01T04:24:56.771Z,478.00
2022-08-01T04:25:22.571Z,477.00
2022-08-01T04:25:52.689Z,476.00
2022-08-01T04:26:22.812Z,475.00
2022-08-01T04:26:52.930Z,474.00
2022-08-01T04:27:51.047Z,474.00
2022-08-01T04:27:53.109Z,474.00
2022-08-01T04:28:23.069Z,475.00
2022-08-01T04:28:53.064Z,476.00
2022-08-01T04:29:23.058Z,474.00
2022-08-01T04:29:53.178Z,475.00
2022-08-01T04:30:23.184Z,475.00
2022-08-01T04:30:53.171Z,474.00
2022-08-01T04:31:23.289Z,476.00
2022-08-01T04:31:53.408Z,477.00
2022-08-01T04:32:23.507Z,476.00
2022-08-01T04:32:53.592Z,476.00
2022-08-01T04:33:23.667Z,477.00
2022-08-01T04:33:53.786Z,477.00
2022-08-01T04:34:23.852Z,477.00
2022-08-01T04:34:53.935Z,477.00
2022-08-01T04:36:01.582Z,477.00
2022-08-01T04:36:01.833Z,478.00
2022-08-01T04:36:24.267Z,477.00
2022-08-01T04:36:54.360Z,476.00
2022-08-01T04:37:24.442Z,476.00
2022-08-01T04:37:54.569Z,475.00
2022-08-01T04:38:24.555Z,474.00
2022-08-01T04:38:54.631Z,473.00
2022-08-01T04:39:24.743Z,475.00
2022-08-01T04:39:54.738Z,476.00
2022-08-01T04:40:24.718Z,476.00
2022-08-01T04:40:54.813Z,478.00
2022-08-01T04:41:24.908Z,480.00
2022-08-01T04:41:54.983Z,485.00
2022-08-01T04:42:30.163Z,482.00
2022-08-01T04:42:55.129Z,484.00
2022-08-01T04:43:25.129Z,482.00
2022-08-01T04:43:55.122Z,483.00
2022-08-01T04:44:25.115Z,482.00
2022-08-01T04:44:55.253Z,482.00
2022-08-01T04:45:25.296Z,478.00
2022-08-01T04:45:55.361Z,477.00
2022-08-01T04:46:25.366Z,477.00
2022-08-01T04:46:55.360Z,476.00
2022-08-01T04:47:25.354Z,475.00
2022-08-01T04:47:55.480Z,477.00
2022-08-01T04:48:25.473Z,478.00
2022-08-01T04:48:55.643Z,479.00
2022-08-01T04:49:25.683Z,480.00
2022-08-01T04:49:55.687Z,483.00
2022-08-01T04:50:25.682Z,484.00
2022-08-01T04:50:55.678Z,487.00
2022-08-01T04:51:25.794Z,489.00
2022-08-01T04:51:55.919Z,488.00
2022-08-01T04:52:25.921Z,489.00
2022-08-01T04:52:56.077Z,490.00
2022-08-01T04:53:26.061Z,490.00
2022-08-01T04:53:56.181Z,491.00
2022-08-01T04:54:26.299Z,491.00
2022-08-01T04:54:56.434Z,492.00
2022-08-01T04:55:26.428Z,491.00
2022-08-01T04:55:56.430Z,491.00
2022-08-01T04:56:26.543Z,491.00
2022-08-01T04:56:56.660Z,491.00
2022-08-01T04:57:26.654Z,489.00
2022-08-01T04:57:56.905Z,487.00
2022-08-01T04:58:26.865Z,489.00
2022-08-01T04:58:56.983Z,488.00
2022-08-01T04:59:27.105Z,489.00
2022-08-01T04:59:57.222Z,490.00
2022-08-01T05:00:27.339Z,489.00
2022-08-01T05:00:57.536Z,490.00
2022-08-01T05:01:27.604Z,490.00
2022-08-01T05:01:57.599Z,490.00
2022-08-01T05:02:27.719Z,490.00
2022-08-01T05:02:57.835Z,490.00
2022-08-01T05:03:27.954Z,488.00
2022-08-01T05:03:58.070Z,491.00
2022-08-01T05:04:28.189Z,492.00
2022-08-01T05:04:58.308Z,491.00
2022-08-01T05:05:28.305Z,491.00
2022-08-01T05:05:58.420Z,490.00
2022-08-01T05:06:28.547Z,490.00
2022-08-01T05:06:58.535Z,490.00
2022-08-01T05:07:28.656Z,489.00
2022-08-01T05:07:58.781Z,487.00
2022-08-01T05:08:28.773Z,487.00
2022-08-01T05:08:58.765Z,487.00
2022-08-01T05:09:31.160Z,486.00
2022-08-01T05:09:58.918Z,485.00
2022-08-01T05:10:29.037Z,484.00
2022-08-01T05:10:59.153Z,486.00
2022-08-01T05:11:29.275Z,487.00
2022-08-01T05:11:59.271Z,486.00
2022-08-01T05:12:29.273Z,487.00
2022-08-01T05:12:59.520Z,488.00
2022-08-01T05:13:29.493Z,486.00
2022-08-01T05:13:59.490Z,487.00
2022-08-01T05:14:29.605Z,489.00
2022-08-01T05:14:59.767Z,491.00
2022-08-01T05:15:29.767Z,491.00
2022-08-01T05:15:59.882Z,489.00
2022-08-01T05:16:30.000Z,507.00
2022-08-01T05:17:00.000Z,634.00
2022-08-01T05:17:30.118Z,538.00
2022-08-01T05:18:00.244Z,516.00
2022-08-01T05:18:30.237Z,517.00
2022-08-01T05:19:00.308Z,517.00
2022-08-01T05:19:30.426Z,516.00
2022-08-01T05:20:00.421Z,513.00
2022-08-01T05:20:30.541Z,509.00
2022-08-01T05:21:00.668Z,504.00
2022-08-01T05:21:30.773Z,500.00
2022-08-01T05:22:00.766Z,500.00
2022-08-01T05:22:30.885Z,498.00
2022-08-01T05:23:01.005Z,499.00
2022-08-01T05:23:42.510Z,501.00
2022-08-01T05:24:01.031Z,504.00
2022-08-01T05:24:31.089Z,504.00
2022-08-01T05:25:01.182Z,503.00
2022-08-01T05:25:57.144Z,502.00
2022-08-01T05:26:01.324Z,500.00
2022-08-01T05:26:31.397Z,499.00
2022-08-01T05:27:01.435Z,498.00
2022-08-01T05:27:31.512Z,496.00
2022-08-01T05:28:01.631Z,496.00
2022-08-01T05:28:31.627Z,495.00
2022-08-01T05:29:01.745Z,493.00
2022-08-01T05:29:31.864Z,492.00
2022-08-01T05:30:01.867Z,492.00
2022-08-01T05:30:31.863Z,493.00
2022-08-01T05:31:01.976Z,493.00
2022-08-01T05:31:32.095Z,500.00
2022-08-01T05:32:02.092Z,503.00
2022-08-01T05:32:32.171Z,505.00
2022-08-01T05:33:02.247Z,505.00
2022-08-01T05:33:32.327Z,505.00
2022-08-01T05:34:02.413Z,506.00
2022-08-01T05:34:32.489Z,507.00
2022-08-01T05:35:02.567Z,505.00
2022-08-01T05:35:49.047Z,505.00
2022-08-01T05:36:02.765Z,503.00
2022-08-01T05:36:32.846Z,503.00
2022-08-01T05:37:02.924Z,501.00
2022-08-01T05:37:33.004Z,501.00
2022-08-01T05:38:03.079Z,500.00
2022-08-01T05:38:33.160Z,498.00
2022-08-01T05:39:03.252Z,498.00
2022-08-01T05:39:33.331Z,497.00
2022-08-01T05:40:03.410Z,495.00
2022-08-01T05:40:33.492Z,496.00
2022-08-01T05:41:03.506Z,493.00
2022-08-01T05:41:33.586Z,494.00
2022-08-01T05:42:04.023Z,494.00
2022-08-01T05:42:33.673Z,493.00
2022-08-01T05:43:03.788Z,493.00
2022-08-01T05:43:33.784Z,493.00
2022-08-01T05:44:03.796Z,493.00
2022-08-01T05:44:33.786Z,496.00
2022-08-01T05:45:03.906Z,497.00
2022-08-01T05:45:33.909Z,498.00
2022-08-01T05:46:04.023Z,500.00
2022-08-01T05:46:34.015Z,502.00
2022-08-01T05:47:04.012Z,502.00
2022-08-01T05:47:34.008Z,503.00
2022-08-01T05:48:04.123Z,504.00
2022-08-01T05:48:34.246Z,506.00
2022-08-01T05:49:04.288Z,505.00
2022-08-01T05:49:34.320Z,506.00
2022-08-01T05:50:04.329Z,506.00
2022-08-01T05:50:34.322Z,505.00
2022-08-01T05:51:04.449Z,502.00
2022-08-01T05:51:34.559Z,508.00
2022-08-01T05:52:04.905Z,499.00
2022-08-01T05:52:34.596Z,497.00
2022-08-01T05:53:04.665Z,496.00
2022-08-01T05:53:34.737Z,494.00
2022-08-01T05:54:04.763Z,495.00
2022-08-01T05:54:34.879Z,494.00
2022-08-01T05:55:04.872Z,493.00
2022-08-01T05:55:34.992Z,491.00
2022-08-01T05:56:05.116Z,491.00
2022-08-01T05:56:35.110Z,490.00
2022-08-01T05:57:05.105Z,489.00
2022-08-01T05:57:35.220Z,489.00
2022-08-01T05:58:05.235Z,489.00
2022-08-01T05:58:35.363Z,489.00
2022-08-01T05:59:05.358Z,490.00
2022-08-01T05:59:35.478Z,489.00
2022-08-01T06:00:05.595Z,489.00
2022-08-01T06:00:35.716Z,489.00
2022-08-01T06:01:05.837Z,488.00
2022-08-01T06:01:35.991Z,490.00
2022-08-01T06:02:06.315Z,489.00
2022-08-01T06:02:36.182Z,488.00
2022-08-01T06:03:06.168Z,489.00
2022-08-01T06:03:36.293Z,488.00
2022-08-01T06:04:06.305Z,489.00
2022-08-01T06:04:36.302Z,488.00
2022-08-01T06:05:09.090Z,488.00
2022-08-01T06:05:36.434Z,490.00
2022-08-01T06:06:06.426Z,490.00
2022-08-01T06:06:36.557Z,489.00
2022-08-01T06:07:06.546Z,490.00
2022-08-01T06:07:38.537Z,492.00
2022-08-01T06:08:06.770Z,494.00
2022-08-01T06:08:36.802Z,494.00
2022-08-01T06:09:06.798Z,495.00
2022-08-01T06:09:36.798Z,496.00
2022-08-01T06:10:06.912Z,496.00
2022-08-01T06:10:37.036Z,494.00
2022-08-01T06:11:07.033Z,495.00
2022-08-01T06:11:37.030Z,495.00
2022-08-01T06:12:07.425Z,495.00
2022-08-01T06:12:37.189Z,498.00
2022-08-01T06:13:07.182Z,499.00
2022-08-01T06:13:44.962Z,498.00
2022-08-01T06:14:07.352Z,500.00
2022-08-01T06:14:37.345Z,500.00
2022-08-01T06:15:07.463Z,499.00
2022-08-01T06:15:37.581Z,498.00